createdAt,value
2019-03-26T00:00:40.933Z,5.80
2019-03-26T00:03:09.477Z,5.90
2019-03-26T00:05:38.053Z,5.90
2019-03-26T00:08:06.597Z,6.00
2019-03-26T00:10:35.140Z,6.00
2019-03-26T00:13:03.695Z,6.10
2019-03-26T00:15:32.270Z,6.10
2019-03-26T00:18:00.880Z,6.20
2019-03-26T00:20:29.451Z,6.10
2019-03-26T00:22:58.182Z,6.10
2019-03-26T00:25:26.746Z,6.10
2019-03-26T00:27:55.289Z,6.20
2019-03-26T00:30:23.862Z,6.10
2019-03-26T00:32:52.411Z,6.20
2019-03-26T00:35:20.990Z,6.20
2019-03-26T00:37:49.582Z,6.20
2019-03-26T00:40:18.227Z,6.10
2019-03-26T00:42:46.765Z,6.30
2019-03-26T00:45:15.288Z,6.40
2019-03-26T00:47:43.840Z,6.30
2019-03-26T00:50:12.530Z,6.30
2019-03-26T00:52:41.001Z,6.30
2019-03-26T00:55:21.937Z,6.40
2019-03-26T00:57:39.906Z,6.40
2019-03-26T01:00:09.569Z,6.40
2019-03-26T01:02:38.276Z,6.40
2019-03-26T01:05:08.117Z,6.30
2019-03-26T01:07:36.757Z,6.30
2019-03-26T01:10:07.407Z,6.20
2019-03-26T01:12:36.317Z,6.30
2019-03-26T01:15:06.788Z,6.30
2019-03-26T01:17:35.362Z,6.50
2019-03-26T01:20:06.102Z,6.50
2019-03-26T01:22:34.846Z,6.50
2019-03-26T01:25:03.749Z,6.60
2019-03-26T01:27:32.250Z,6.60
2019-03-26T01:30:00.714Z,6.50
2019-03-26T01:32:29.276Z,6.50
2019-03-26T01:34:57.812Z,6.50
2019-03-26T01:37:26.318Z,6.40
2019-03-26T01:39:54.786Z,6.30
2019-03-26T01:42:23.395Z,6.40
2019-03-26T01:44:51.945Z,6.50
2019-03-26T01:47:21.333Z,6.60
2019-03-26T01:49:49.874Z,6.60
2019-03-26T01:52:18.444Z,6.70
2019-03-26T01:54:46.991Z,6.60
2019-03-26T01:57:15.585Z,6.50
2019-03-26T01:59:44.164Z,6.50
2019-03-26T02:02:12.725Z,6.50
2019-03-26T02:04:41.197Z,6.50
2019-03-26T02:07:09.780Z,6.50
2019-03-26T02:09:38.333Z,6.50
2019-03-26T02:12:06.924Z,6.40
2019-03-26T02:14:35.503Z,6.40
2019-03-26T02:17:04.038Z,6.40
2019-03-26T02:19:32.582Z,6.30
2019-03-26T02:22:01.162Z,6.40
2019-03-26T02:24:29.739Z,6.40
2019-03-26T02:26:58.307Z,6.30
2019-03-26T02:29:26.857Z,6.20
2019-03-26T02:31:55.501Z,6.30
2019-03-26T02:34:24.067Z,6.30
2019-03-26T02:36:52.632Z,6.20
2019-03-26T02:39:21.175Z,6.30
2019-03-26T02:41:49.734Z,6.30
2019-03-26T02:44:18.304Z,6.20
2019-03-26T02:46:46.864Z,6.20
2019-03-26T02:49:15.413Z,6.00
2019-03-26T02:51:43.954Z,6.00
2019-03-26T02:54:12.446Z,6.00
2019-03-26T02:56:41.061Z,6.00
2019-03-26T02:59:09.550Z,6.00
2019-03-26T03:01:38.103Z,5.90
2019-03-26T03:04:06.669Z,6.00
2019-03-26T03:06:35.149Z,6.00
2019-03-26T03:09:05.372Z,5.50
2019-03-26T03:11:33.913Z,6.00
2019-03-26T03:14:02.767Z,5.90
2019-03-26T03:16:31.638Z,5.80
2019-03-26T03:19:00.213Z,5.80
2019-03-26T03:21:28.757Z,5.80
2019-03-26T03:23:57.311Z,5.80
2019-03-26T03:26:25.864Z,5.70
2019-03-26T03:28:54.449Z,5.70
2019-03-26T03:31:22.993Z,5.70
2019-03-26T03:33:51.555Z,5.60
2019-03-26T03:36:20.111Z,5.60
2019-03-26T03:38:48.678Z,5.60
2019-03-26T03:41:17.249Z,5.50
2019-03-26T03:43:45.796Z,5.50
2019-03-26T03:46:17.701Z,5.50
2019-03-26T03:48:47.415Z,5.50
2019-03-26T03:51:19.089Z,5.50
2019-03-26T03:53:47.787Z,5.40
2019-03-26T03:56:19.968Z,5.30
2019-03-26T03:58:50.093Z,5.40
2019-03-26T04:01:18.670Z,5.40
2019-03-26T04:03:47.247Z,5.50
2019-03-26T04:06:15.779Z,5.50
2019-03-26T04:08:44.408Z,5.50
2019-03-26T04:11:13.065Z,5.50
2019-03-26T04:13:41.630Z,5.60
2019-03-26T04:16:10.178Z,5.60
2019-03-26T04:18:38.754Z,5.40
2019-03-26T04:21:07.303Z,5.40
2019-03-26T04:23:35.886Z,5.50
2019-03-26T04:26:04.497Z,5.70
2019-03-26T04:28:32.991Z,5.80
2019-03-26T04:31:01.548Z,5.80
2019-03-26T04:33:30.105Z,5.80
2019-03-26T04:35:58.597Z,5.80
2019-03-26T04:38:27.163Z,5.90
2019-03-26T04:40:55.792Z,5.90
2019-03-26T04:43:24.346Z,6.10
2019-03-26T04:45:52.902Z,6.10
2019-03-26T04:48:21.467Z,6.10
2019-03-26T04:50:50.030Z,6.10
2019-03-26T04:53:18.529Z,6.10
2019-03-26T04:55:47.088Z,6.20
2019-03-26T04:58:15.625Z,6.20
2019-03-26T05:00:44.129Z,6.20
2019-03-26T05:03:12.672Z,6.30
2019-03-26T05:05:41.239Z,6.30
2019-03-26T05:08:09.784Z,6.40
2019-03-26T05:10:38.440Z,6.30
2019-03-26T05:13:06.912Z,6.40
2019-03-26T05:15:35.487Z,6.40
2019-03-26T05:18:04.086Z,6.50
2019-03-26T05:20:32.582Z,6.40
2019-03-26T05:23:01.060Z,6.40
2019-03-26T05:25:29.745Z,6.50
2019-03-26T05:27:58.238Z,6.50
2019-03-26T05:30:26.805Z,6.50
2019-03-26T05:32:55.357Z,6.80
2019-03-26T05:35:23.849Z,6.50
2019-03-26T05:37:52.320Z,6.50
2019-03-26T05:40:20.890Z,6.60
2019-03-26T05:42:49.520Z,6.60
2019-03-26T05:45:18.073Z,6.50
2019-03-26T05:47:46.689Z,6.60
2019-03-26T05:50:15.398Z,6.60
2019-03-26T05:52:43.946Z,6.80
2019-03-26T05:55:12.582Z,6.80
2019-03-26T05:57:41.197Z,6.90
2019-03-26T06:00:13.777Z,6.80
2019-03-26T06:02:42.410Z,6.90
2019-03-26T06:05:11.161Z,7.00
2019-03-26T06:07:39.711Z,7.10
2019-03-26T06:10:09.427Z,7.20
2019-03-26T06:12:38.033Z,7.30
2019-03-26T06:15:09.234Z,7.40
2019-03-26T06:17:37.788Z,7.50
2019-03-26T06:20:09.588Z,7.60
2019-03-26T06:22:38.323Z,7.60
2019-03-26T06:25:07.748Z,7.70
2019-03-26T06:27:36.275Z,7.80
2019-03-26T06:30:07.544Z,7.90
2019-03-26T06:32:36.009Z,7.90
2019-03-26T06:35:07.480Z,7.90
2019-03-26T06:37:36.097Z,7.90
2019-03-26T06:40:07.094Z,8.00
2019-03-26T06:42:35.835Z,8.10
2019-03-26T06:45:07.307Z,8.10
2019-03-26T06:47:35.936Z,8.20
2019-03-26T06:50:07.405Z,8.10
2019-03-26T06:52:35.881Z,8.00
2019-03-26T06:55:06.389Z,7.90
2019-03-26T06:57:36.084Z,7.90
2019-03-26T07:00:07.939Z,8.00
2019-03-26T07:02:36.486Z,8.00
2019-03-26T07:05:06.091Z,7.80
2019-03-26T07:07:34.712Z,7.80
2019-03-26T07:10:04.749Z,7.80
2019-03-26T07:12:33.289Z,7.90
2019-03-26T07:15:01.858Z,7.80
2019-03-26T07:17:30.422Z,7.80
2019-03-26T07:19:58.960Z,7.60
2019-03-26T07:22:27.521Z,7.70
2019-03-26T07:24:56.062Z,7.80
2019-03-26T07:27:24.702Z,7.70
2019-03-26T07:29:53.646Z,7.70
2019-03-26T07:32:22.212Z,7.60
2019-03-26T07:34:50.855Z,7.70
2019-03-26T07:37:19.428Z,7.70
2019-03-26T07:39:47.964Z,7.70
2019-03-26T07:42:16.553Z,7.60
2019-03-26T07:44:45.561Z,7.60
2019-03-26T07:47:14.203Z,7.60
2019-03-26T07:49:42.729Z,7.60
2019-03-26T07:52:11.398Z,7.70
2019-03-26T07:54:39.970Z,7.70
2019-03-26T07:57:08.572Z,7.80
2019-03-26T07:59:37.116Z,7.80
2019-03-26T08:02:05.688Z,8.00
2019-03-26T08:04:34.238Z,8.00
2019-03-26T08:07:03.670Z,8.10
2019-03-26T08:09:32.243Z,8.20
2019-03-26T08:12:00.869Z,8.30
2019-03-26T08:14:29.526Z,8.50
2019-03-26T08:16:58.059Z,8.70
2019-03-26T08:19:26.652Z,8.70
2019-03-26T08:21:55.318Z,8.90
2019-03-26T08:24:23.986Z,8.90
2019-03-26T08:26:52.554Z,9.10
2019-03-26T08:29:21.194Z,9.10
2019-03-26T08:31:49.758Z,9.20
2019-03-26T08:34:18.305Z,9.20
2019-03-26T08:36:46.801Z,9.30
2019-03-26T08:39:15.424Z,9.50
2019-03-26T08:41:43.969Z,9.60
2019-03-26T08:44:12.465Z,9.70
2019-03-26T08:46:41.358Z,9.80
2019-03-26T08:49:09.973Z,10.10
2019-03-26T08:51:38.540Z,10.20
2019-03-26T08:54:07.148Z,10.30
2019-03-26T08:56:35.638Z,10.40
2019-03-26T08:59:04.176Z,10.60
2019-03-26T09:01:32.673Z,10.60
2019-03-26T09:04:01.235Z,10.50
2019-03-26T09:06:29.876Z,10.50
2019-03-26T09:08:58.351Z,10.30
2019-03-26T09:11:26.918Z,10.30
2019-03-26T09:13:55.388Z,10.10
2019-03-26T09:16:23.882Z,10.20
2019-03-26T09:18:52.464Z,10.20
2019-03-26T09:21:21.050Z,10.10
2019-03-26T09:23:49.666Z,10.20
2019-03-26T09:26:18.241Z,10.20
2019-03-26T09:28:48.042Z,10.20
2019-03-26T09:31:16.638Z,10.20
2019-03-26T09:33:45.221Z,10.40
2019-03-26T09:36:14.066Z,10.70
2019-03-26T09:38:42.714Z,11.00
2019-03-26T09:41:11.627Z,11.30
2019-03-26T09:43:40.213Z,11.60
2019-03-26T09:46:08.760Z,12.00
2019-03-26T09:48:37.267Z,12.20
2019-03-26T09:51:05.810Z,12.20
2019-03-26T09:53:34.378Z,12.20
2019-03-26T09:56:02.850Z,12.30
2019-03-26T09:58:31.341Z,12.30
2019-03-26T10:01:00.115Z,12.20
2019-03-26T10:03:28.607Z,12.10
2019-03-26T10:05:57.156Z,12.00
2019-03-26T10:08:25.717Z,11.90
2019-03-26T10:10:54.188Z,11.90
2019-03-26T10:13:22.687Z,12.10
2019-03-26T10:15:51.316Z,12.10
2019-03-26T10:18:19.809Z,12.10
2019-03-26T10:20:48.554Z,12.20
2019-03-26T10:23:17.120Z,12.20
2019-03-26T10:25:45.593Z,12.40
2019-03-26T10:28:14.092Z,12.60
2019-03-26T10:30:42.821Z,12.70
2019-03-26T10:33:11.309Z,12.80
2019-03-26T10:35:40.125Z,12.70
2019-03-26T10:38:09.593Z,12.80
2019-03-26T10:40:39.284Z,13.00
2019-03-26T10:43:08.013Z,13.00
2019-03-26T10:45:36.566Z,13.00
2019-03-26T10:48:05.377Z,13.10
2019-03-26T10:50:33.941Z,13.10
2019-03-26T10:53:02.691Z,13.00
2019-03-26T10:55:31.305Z,12.90
2019-03-26T10:57:59.850Z,12.90
2019-03-26T11:00:29.705Z,13.20
2019-03-26T11:02:58.265Z,13.40
2019-03-26T11:05:26.757Z,13.60
2019-03-26T11:07:55.306Z,13.60
2019-03-26T11:10:23.903Z,13.60
2019-03-26T11:12:52.519Z,13.50
2019-03-26T11:15:21.186Z,13.10
2019-03-26T11:17:49.735Z,12.80
2019-03-26T11:20:18.380Z,12.60
2019-03-26T11:22:47.626Z,12.40
2019-03-26T11:25:16.626Z,12.20
2019-03-26T11:27:45.237Z,11.70
2019-03-26T11:30:13.910Z,11.60
2019-03-26T11:32:42.517Z,11.50
2019-03-26T11:35:11.246Z,11.70
2019-03-26T11:37:39.925Z,11.80
2019-03-26T11:40:09.063Z,12.00
2019-03-26T11:42:37.603Z,12.10
2019-03-26T11:45:10.034Z,12.30
2019-03-26T11:47:39.659Z,12.20
2019-03-26T11:50:08.826Z,12.40
2019-03-26T11:52:37.758Z,12.50
2019-03-26T11:55:07.469Z,12.80
2019-03-26T11:57:36.014Z,13.00
2019-03-26T12:00:10.229Z,13.00
2019-03-26T12:02:38.706Z,12.80
2019-03-26T12:05:07.701Z,12.60
2019-03-26T12:07:36.990Z,12.30
2019-03-26T12:10:07.877Z,12.20
2019-03-26T12:12:36.508Z,12.00
2019-03-26T12:15:07.532Z,12.10
2019-03-26T12:17:36.072Z,12.50
2019-03-26T12:20:06.588Z,13.00
2019-03-26T12:22:35.126Z,13.20
2019-03-26T12:25:04.932Z,13.30
2019-03-26T12:27:36.311Z,13.60
2019-03-26T12:30:08.189Z,14.60
2019-03-26T12:32:36.742Z,15.50
2019-03-26T12:35:08.398Z,16.40
2019-03-26T12:37:36.938Z,16.60
2019-03-26T12:40:07.363Z,16.20
2019-03-26T12:42:36.044Z,15.70
2019-03-26T12:45:07.366Z,14.80
2019-03-26T12:47:36.056Z,14.30
2019-03-26T12:50:06.967Z,13.60
2019-03-26T12:52:35.522Z,13.10
2019-03-26T12:55:05.125Z,13.30
2019-03-26T12:57:33.685Z,14.70
2019-03-26T13:00:02.239Z,16.00
2019-03-26T13:02:30.779Z,15.90
2019-03-26T13:04:59.342Z,16.00
2019-03-26T13:07:27.882Z,16.10
2019-03-26T13:09:56.434Z,16.40
2019-03-26T13:12:25.021Z,17.00
2019-03-26T13:14:53.552Z,17.80
2019-03-26T13:17:22.212Z,18.30
2019-03-26T13:19:50.752Z,19.40
2019-03-26T13:22:19.316Z,20.10
2019-03-26T13:24:48.139Z,19.70
2019-03-26T13:27:16.701Z,18.70
2019-03-26T13:29:45.248Z,17.80
2019-03-26T13:32:13.892Z,17.30
2019-03-26T13:34:42.438Z,17.80
2019-03-26T13:37:11.015Z,17.80
2019-03-26T13:39:39.616Z,17.40
2019-03-26T13:42:08.118Z,17.50
2019-03-26T13:44:36.657Z,17.10
2019-03-26T13:47:05.165Z,16.50
2019-03-26T13:49:33.755Z,16.00
2019-03-26T13:52:02.261Z,16.00
2019-03-26T13:54:30.806Z,15.80
2019-03-26T13:56:59.368Z,15.80
2019-03-26T13:59:27.977Z,15.60
2019-03-26T14:01:56.589Z,15.20
2019-03-26T14:04:25.132Z,15.00
2019-03-26T14:06:53.617Z,14.60
2019-03-26T14:09:22.085Z,14.50
2019-03-26T14:11:50.662Z,14.70
2019-03-26T14:14:19.205Z,14.70
2019-03-26T14:16:47.693Z,14.80
2019-03-26T14:19:16.405Z,15.20
2019-03-26T14:21:44.966Z,15.40
2019-03-26T14:24:13.640Z,15.80
2019-03-26T14:26:42.265Z,16.10
2019-03-26T14:29:10.797Z,16.20
2019-03-26T14:31:39.364Z,16.00
2019-03-26T14:34:07.909Z,15.80
2019-03-26T14:36:36.490Z,15.70
2019-03-26T14:39:08.098Z,15.60
2019-03-26T14:41:36.593Z,15.20
2019-03-26T14:44:05.126Z,14.60
2019-03-26T14:46:33.826Z,14.10
2019-03-26T14:49:02.369Z,13.70
2019-03-26T14:51:30.930Z,13.50
2019-03-26T14:53:59.398Z,13.50
2019-03-26T14:56:28.197Z,13.70
2019-03-26T14:58:56.759Z,14.30
2019-03-26T15:01:25.296Z,15.20
2019-03-26T15:03:53.871Z,16.10
2019-03-26T15:06:22.413Z,16.70
2019-03-26T15:08:50.976Z,17.30
2019-03-26T15:11:19.454Z,18.20
2019-03-26T15:13:49.648Z,19.50
2019-03-26T15:16:18.336Z,20.80
2019-03-26T15:18:46.915Z,21.50
2019-03-26T15:21:15.457Z,22.30
2019-03-26T15:23:44.169Z,23.20
2019-03-26T15:26:12.723Z,23.60
2019-03-26T15:28:41.289Z,24.10
2019-03-26T15:31:09.837Z,24.30
2019-03-26T15:33:38.321Z,23.90
2019-03-26T15:36:06.790Z,22.30
2019-03-26T15:38:35.605Z,20.40
2019-03-26T15:41:04.217Z,18.20
2019-03-26T15:43:32.719Z,16.60
2019-03-26T15:46:01.193Z,15.30
2019-03-26T15:48:29.748Z,14.50
2019-03-26T15:50:58.558Z,13.90
2019-03-26T15:53:27.104Z,13.70
2019-03-26T15:55:55.652Z,13.40
2019-03-26T15:58:24.237Z,13.60
2019-03-26T16:00:52.709Z,14.90
2019-03-26T16:03:22.507Z,15.70
2019-03-26T16:05:51.213Z,15.40
2019-03-26T16:08:19.800Z,14.60
2019-03-26T16:10:48.349Z,13.90
2019-03-26T16:13:16.837Z,13.30
2019-03-26T16:15:45.397Z,12.50
2019-03-26T16:18:14.245Z,11.70
2019-03-26T16:20:43.002Z,11.30
2019-03-26T16:23:11.477Z,11.10
2019-03-26T16:25:39.977Z,11.20
2019-03-26T16:28:08.514Z,11.20
2019-03-26T16:30:37.091Z,11.20
2019-03-26T16:33:05.710Z,11.20
2019-03-26T16:35:34.207Z,11.20
2019-03-26T16:38:02.759Z,11.20
2019-03-26T16:40:31.327Z,11.30
2019-03-26T16:42:59.801Z,11.30
2019-03-26T16:45:28.362Z,11.60
2019-03-26T16:47:56.854Z,11.40
2019-03-26T16:50:25.421Z,11.50
2019-03-26T16:52:54.158Z,11.40
2019-03-26T16:55:23.014Z,11.00
2019-03-26T16:57:51.644Z,10.80
2019-03-26T17:00:23.220Z,11.00
2019-03-26T17:02:51.770Z,11.20
2019-03-26T17:05:23.417Z,11.30
2019-03-26T17:07:51.969Z,11.00
2019-03-26T17:10:20.538Z,10.60
2019-03-26T17:12:49.018Z,10.50
2019-03-26T17:15:17.573Z,10.30
2019-03-26T17:17:46.130Z,10.20
2019-03-26T17:20:14.836Z,10.10
2019-03-26T17:22:43.312Z,9.70
2019-03-26T17:25:11.950Z,9.50
2019-03-26T17:27:40.414Z,9.30
2019-03-26T17:30:09.220Z,9.20
2019-03-26T17:32:37.765Z,9.10
2019-03-26T17:35:07.106Z,8.90
2019-03-26T17:37:35.581Z,9.00
2019-03-26T17:40:05.009Z,9.00
2019-03-26T17:42:33.552Z,8.80
2019-03-26T17:45:02.113Z,8.80
2019-03-26T17:47:30.656Z,8.70
2019-03-26T17:49:59.165Z,8.60
2019-03-26T17:52:27.634Z,8.60
2019-03-26T17:54:56.341Z,8.20
2019-03-26T17:57:24.886Z,8.70
2019-03-26T17:59:53.384Z,8.80
2019-03-26T18:02:22.007Z,8.80
2019-03-26T18:04:51.349Z,8.70
2019-03-26T18:07:19.910Z,8.70
2019-03-26T18:09:48.448Z,8.60
2019-03-26T18:12:29.895Z,8.80
2019-03-26T18:14:47.501Z,9.10
2019-03-26T18:17:16.153Z,8.80
2019-03-26T18:19:44.678Z,8.80
2019-03-26T18:22:13.242Z,8.80
2019-03-26T18:24:41.705Z,8.80
2019-03-26T18:27:10.274Z,8.80
2019-03-26T18:29:38.812Z,8.90
2019-03-26T18:32:07.637Z,9.00
2019-03-26T18:34:36.107Z,8.90
2019-03-26T18:37:04.736Z,9.10
2019-03-26T18:39:33.209Z,9.00
2019-03-26T18:42:01.713Z,9.10
2019-03-26T18:44:30.259Z,9.10
2019-03-26T18:46:58.830Z,9.10
2019-03-26T18:49:27.396Z,9.10
2019-03-26T18:51:55.975Z,9.10
2019-03-26T18:54:24.513Z,9.10
2019-03-26T18:56:53.068Z,9.10
2019-03-26T18:59:21.613Z,9.20
2019-03-26T19:01:50.443Z,9.10
2019-03-26T19:04:18.984Z,9.20
2019-03-26T19:06:47.470Z,9.20
2019-03-26T19:09:15.940Z,9.20
2019-03-26T19:11:44.505Z,9.20
2019-03-26T19:14:12.968Z,9.20
2019-03-26T19:16:41.465Z,9.00
2019-03-26T19:19:10.287Z,9.10
2019-03-26T19:21:38.860Z,9.20
2019-03-26T19:24:07.593Z,9.20
2019-03-26T19:26:36.109Z,9.20
2019-03-26T19:29:04.836Z,9.10
2019-03-26T19:31:33.392Z,9.10
2019-03-26T19:34:01.946Z,9.20
2019-03-26T19:36:30.594Z,9.30
2019-03-26T19:38:59.137Z,9.30
2019-03-26T19:41:27.704Z,9.30
2019-03-26T19:43:56.262Z,9.40
2019-03-26T19:46:24.732Z,9.30
2019-03-26T19:48:53.229Z,9.30
2019-03-26T19:51:21.773Z,9.30
2019-03-26T19:53:50.348Z,9.20
2019-03-26T19:56:18.819Z,9.20
2019-03-26T19:58:47.386Z,9.20
2019-03-26T20:01:15.937Z,9.20
2019-03-26T20:03:44.431Z,9.10
2019-03-26T20:06:14.066Z,9.10
2019-03-26T20:08:42.745Z,9.10
2019-03-26T20:11:11.228Z,9.10
2019-03-26T20:13:39.721Z,9.10
2019-03-26T20:16:08.188Z,9.20
2019-03-26T20:18:36.749Z,9.30
2019-03-26T20:21:05.369Z,9.30
2019-03-26T20:23:33.942Z,9.10
2019-03-26T20:26:02.569Z,9.10
2019-03-26T20:28:31.126Z,9.10
2019-03-26T20:30:59.750Z,9.20
2019-03-26T20:33:28.268Z,9.20
2019-03-26T20:35:56.786Z,9.20
2019-03-26T20:38:25.475Z,9.10
2019-03-26T20:40:54.247Z,9.20
2019-03-26T20:43:22.826Z,9.20
2019-03-26T20:45:51.438Z,9.20
2019-03-26T20:48:19.995Z,9.20
2019-03-26T20:50:48.549Z,9.20
2019-03-26T20:53:17.118Z,9.20
2019-03-26T20:55:54.237Z,9.30
2019-03-26T20:58:15.905Z,9.40
2019-03-26T21:00:44.450Z,9.30
2019-03-26T21:03:13.013Z,9.40
2019-03-26T21:05:41.657Z,9.30
2019-03-26T21:08:10.289Z,9.30
2019-03-26T21:10:38.833Z,9.30
2019-03-26T21:13:07.461Z,9.30
2019-03-26T21:15:36.001Z,9.40
2019-03-26T21:18:04.506Z,9.50
2019-03-26T21:20:33.041Z,9.40
2019-03-26T21:23:01.537Z,9.40
2019-03-26T21:25:30.078Z,9.40
2019-03-26T21:27:58.665Z,9.40
2019-03-26T21:30:27.222Z,9.50
2019-03-26T21:32:55.792Z,9.50
2019-03-26T21:35:24.352Z,9.50
2019-03-26T21:37:52.925Z,9.50
2019-03-26T21:40:21.543Z,9.50
2019-03-26T21:42:50.162Z,9.50
2019-03-26T21:45:21.714Z,9.50
2019-03-26T21:47:50.310Z,9.40
2019-03-26T21:50:18.815Z,9.40
2019-03-26T21:52:47.358Z,9.40
2019-03-26T21:55:15.979Z,9.40
2019-03-26T21:57:44.542Z,9.30
2019-03-26T22:00:13.455Z,9.20
2019-03-26T22:02:41.995Z,9.20
2019-03-26T22:05:10.808Z,9.20
2019-03-26T22:07:39.348Z,9.20
2019-03-26T22:10:08.582Z,9.20
2019-03-26T22:12:37.398Z,9.20
2019-03-26T22:15:10.661Z,9.20
2019-03-26T22:17:39.260Z,9.10
2019-03-26T22:20:08.294Z,9.20
2019-03-26T22:22:36.911Z,9.20
2019-03-26T22:25:07.280Z,9.30
2019-03-26T22:27:35.763Z,9.20
2019-03-26T22:30:07.069Z,9.20
2019-03-26T22:32:35.676Z,9.20
2019-03-26T22:35:06.145Z,9.20
2019-03-26T22:37:34.726Z,9.20
2019-03-26T22:40:04.712Z,9.10
2019-03-26T22:42:33.203Z,9.20
2019-03-26T22:45:01.765Z,9.10
2019-03-26T22:47:30.305Z,9.10
2019-03-26T22:49:58.799Z,9.10
2019-03-26T22:52:27.351Z,9.10
2019-03-26T22:54:55.919Z,9.10
2019-03-26T22:57:24.457Z,9.10
2019-03-26T22:59:52.957Z,9.10
2019-03-26T23:02:21.540Z,9.00
2019-03-26T23:04:50.161Z,9.00
2019-03-26T23:07:18.696Z,9.00
2019-03-26T23:09:47.305Z,9.10
2019-03-26T23:12:16.002Z,9.10
2019-03-26T23:14:45.601Z,9.10
2019-03-26T23:17:14.366Z,9.00
2019-03-26T23:19:42.856Z,9.10
2019-03-26T23:22:11.463Z,9.10
2019-03-26T23:24:40.037Z,9.00
2019-03-26T23:27:08.509Z,9.00
2019-03-26T23:29:37.054Z,9.00
2019-03-26T23:32:05.607Z,9.00
